Capital City Airport Lansing US
ICAO: KLAN
IATA: LAN
Category: Medium
Scheduled Services: Yes

Elevation: 861 ft
TransAlt. 18000 ft.

Airport Communications:
LANSING APP/DEP:118.65
ATIS:119.75
CLNC DEL:123.675
GND:121.9
LANSING RDO:122.2
LANSING TWR:119.9
UNICOM:122.95

KLAN Zoom In..

If you have problems with the map follow the link
https://www.worldairports.se/pages/airport.php?
ICAO=KLAN

Runways:

(A) RW 06 length 5002 ft width 120 ft
---- / hdg 58

(B) RW 10L length 3601 ft width 75 ft
---- / hdg 96

(C) RW 10R length 8506 ft width 150 ft
ILS 111.70 / hdg 96

(D) RW 24 length 5002 ft width 120 ft
---- / hdg 238

(E) RW 28L length 8506 ft width 150 ft
ILS 110.10 / hdg 276

(F) RW 28R length 3601 ft width 75 ft
---- / hdg 276

Location; KLAN
Day. 14 / Time. 15.41 Zulu
* Altimeter: 29.64
* Temperature: 01° c. 33.8°f.
* Wind from: 320° Speed 05 kn.
Dewpoint: -02° c.
Visibility: 3 Statute Miles.
Clouds: Broken 700 ft.
Clouds: Overcast 8000 ft.
Conditions: Mist.

KLAN 141541Z 32005KT 3SM BR BKN007 OVC080 01/M02 A2964 RMK AO2 T00061017


Wind From 320°
Speed 05 kn.

 
 
jpsmedia worldairports.se 2019   terms of use